Time;durP1;ratioP1;P1;durP2;ratioP2;P2;SDS_P1;SDS_P2;PMS_P1;PMS_P2;Temp;Humidity;BMP_temperature;BMP_pressure;BME280_temperature;BME280_humidity;BME280_pressure;Samples;Min_cycle;Max_cycle;Signal;HPM_P1;HPM_P2
2022/04/11 00:00:36;;;;;;;16.92;6.53;;;;;;;8.55;50.71;99616.03;4844862;29;20381;-81
2022/04/11 00:03:02;;;;;;;14.60;6.28;;;;;;;8.61;50.98;99626.25;4844096;29;20069;-80
2022/04/11 00:05:28;;;;;;;13.70;7.15;;;;;;;8.58;50.74;99623.84;4860699;29;20091;-79
2022/04/11 00:07:54;;;;;;;17.15;7.60;;;;;;;8.61;50.75;99617.41;4843901;29;20597;-81
2022/04/11 00:10:20;;;;;;;10.27;7.35;;;;;;;8.64;50.63;99617.22;4843809;29;20052;-79
2022/04/11 00:12:46;;;;;;;15.20;8.38;;;;;;;8.67;50.47;99611.69;4843738;29;20105;-79
2022/04/11 00:15:12;;;;;;;20.38;9.15;;;;;;;8.70;50.27;99606.16;4843985;29;20059;-80
2022/04/11 00:17:38;;;;;;;20.35;7.93;;;;;;;8.67;50.55;99601.88;4860222;29;20488;-83
2022/04/11 00:20:05;;;;;;;13.77;6.43;;;;;;;8.63;50.44;99604.88;4843608;29;20420;-80
2022/04/11 00:22:35;;;;;;;18.27;6.10;;;;;;;8.64;50.48;99596.75;4843646;29;20152;-79
2022/04/11 00:25:03;;;;;;;13.32;5.30;;;;;;;8.50;50.62;99600.38;4843569;29;20092;-80
2022/04/11 00:27:29;;;;;;;12.95;4.45;;;;;;;8.51;50.40;99598.56;4858989;29;20501;-82
2022/04/11 00:29:55;;;;;;;10.45;4.80;;;;;;;8.47;50.61;99599.72;4828531;29;20053;-80
2022/04/11 00:32:21;;;;;;;14.32;5.20;;;;;;;8.36;51.14;99602.22;4843986;29;20076;-81
2022/04/11 00:34:47;;;;;;;15.18;6.72;;;;;;;8.20;51.59;99591.72;4858962;29;20057;-81
2022/04/11 00:37:13;;;;;;;16.27;6.88;;;;;;;8.16;51.78;99595.53;4860057;29;20520;-79
2022/04/11 00:39:40;;;;;;;14.60;7.68;;;;;;;8.23;51.48;99591.50;4858984;29;20132;-78
2022/04/11 00:42:14;;;;;;;12.32;7.32;;;;;;;8.25;51.52;99594.94;4845560;29;20078;-81
2022/04/11 00:44:40;;;;;;;15.27;7.35;;;;;;;8.28;51.36;99589.41;4847154;29;20117;-80
2022/04/11 00:47:06;;;;;;;14.18;6.93;;;;;;;8.20;51.73;99587.25;4862195;29;20045;-80
2022/04/11 00:49:32;;;;;;;13.75;6.95;;;;;;;8.21;51.78;99593.44;4846965;29;20053;-81
2022/04/11 00:51:58;;;;;;;12.77;7.05;;;;;;;8.15;52.12;99586.69;4846737;29;20564;-83
2022/04/11 00:54:27;;;;;;;22.98;6.68;;;;;;;8.14;51.79;99578.81;4861853;29;20076;-81
2022/04/11 00:56:54;;;;;;;15.48;7.32;;;;;;;8.13;52.08;99577.13;4861851;29;20156;-79
2022/04/11 00:59:20;;;;;;;18.48;7.88;;;;;;;8.14;51.65;99581.47;4862060;29;20181;-82
2022/04/11 01:01:47;;;;;;;20.63;8.32;;;;;;;8.14;51.91;99584.13;4846432;29;20100;-82
2022/04/11 01:04:23;;;;;;;19.25;7.72;;;;;;;8.14;51.83;99579.66;4861986;29;20097;-83
2022/04/11 01:06:58;;;;;;;18.33;7.53;;;;;;;8.07;51.78;99574.84;4846589;29;20049;-82
2022/04/11 01:09:24;;;;;;;9.35;6.68;;;;;;;8.15;51.61;99580.50;4832051;29;20056;-80
2022/04/11 01:11:54;;;;;;;14.80;7.05;;;;;;;8.08;51.71;99576.53;4846918;29;20125;-82
2022/04/11 01:14:20;;;;;;;21.17;7.05;;;;;;;8.12;51.59;99578.03;4846313;29;20060;-81
2022/04/11 01:16:52;;;;;;;14.00;6.93;;;;;;;8.11;51.74;99561.22;4846784;29;20049;-82
2022/04/11 01:19:20;;;;;;;18.48;7.57;;;;;;;8.14;51.47;99571.69;4846297;29;20054;-82
2022/04/11 01:21:47;;;;;;;18.88;7.65;;;;;;;8.15;51.62;99573.38;4861525;29;20378;-81
2022/04/11 01:24:21;;;;;;;16.47;8.17;;;;;;;8.12;51.60;99572.72;4846270;29;20053;-82
2022/04/11 01:26:49;;;;;;;12.05;6.80;;;;;;;8.00;51.76;99569.06;4831006;29;20048;-80
2022/04/11 01:29:17;;;;;;;17.00;7.93;;;;;;;8.10;51.57;99575.50;4845662;29;20042;-81
2022/04/11 01:31:45;;;;;;;21.23;7.93;;;;;;;7.94;51.93;99565.00;4845795;29;20445;-81
2022/04/11 01:34:11;;;;;;;27.17;7.60;;;;;;;7.92;51.98;99580.22;4860803;29;20480;-80
2022/04/11 01:36:38;;;;;;;18.58;8.00;;;;;;;7.85;52.25;99570.91;4861608;29;20493;-80
2022/04/11 01:39:08;;;;;;;23.83;8.57;;;;;;;7.93;51.73;99573.09;4845731;29;20067;-80
2022/04/11 01:41:34;;;;;;;27.88;7.35;;;;;;;7.93;51.93;99579.25;4860798;29;20050;-80
2022/04/11 01:44:00;;;;;;;20.65;6.88;;;;;;;7.90;51.69;99567.94;4862090;29;20068;-80
2022/04/11 01:46:26;;;;;;;30.33;7.32;;;;;;;7.86;52.10;99562.00;4860867;29;20045;-81
2022/04/11 01:48:56;;;;;;;22.58;7.38;;;;;;;7.81;52.14;99558.78;4845540;29;20042;-80
2022/04/11 01:51:22;;;;;;;31.27;7.50;;;;;;;7.87;51.75;99562.84;4845596;29;20056;-81
2022/04/11 01:53:48;;;;;;;22.90;7.47;;;;;;;7.86;51.86;99562.00;4846059;29;20057;-80
2022/04/11 01:56:14;;;;;;;18.20;6.72;;;;;;;7.90;51.71;99565.28;4862515;29;20088;-80
2022/04/11 01:58:40;;;;;;;16.17;6.15;;;;;;;7.94;51.58;99565.00;4862124;29;20089;-80
2022/04/11 02:01:06;;;;;;;19.88;5.97;;;;;;;8.01;51.61;99565.44;4860391;29;20051;-81
2022/04/11 02:03:34;;;;;;;24.15;6.18;;;;;;;7.96;51.38;99565.75;4861930;29;20049;-81
2022/04/11 02:06:00;;;;;;;23.55;5.97;;;;;;;7.93;51.62;99555.28;4829107;29;20413;-82
2022/04/11 02:08:26;;;;;;;16.27;5.47;;;;;;;7.99;51.45;99557.56;4839883;29;20045;-81
2022/04/11 02:10:58;;;;;;;10.70;5.63;;;;;;;8.00;51.35;99559.28;4860929;29;20091;-79
2022/04/11 02:13:23;;;;;;;15.32;5.63;;;;;;;8.01;51.66;99566.31;4842130;29;20077;-80
2022/04/11 02:15:50;;;;;;;24.77;6.00;;;;;;;8.09;51.48;99559.63;4802980;29;20462;-80
2022/04/11 02:18:16;;;;;;;39.58;6.65;;;;;;;8.08;51.64;99555.25;4845185;29;20061;-81
2022/04/11 02:20:42;;;;;;;17.45;6.18;;;;;;;8.16;51.29;99558.25;4860611;29;20061;-82
2022/04/11 02:23:09;;;;;;;22.60;5.57;;;;;;;8.19;51.48;99563.38;4829966;29;20041;-81
2022/04/11 02:25:37;;;;;;;16.52;5.88;;;;;;;8.28;51.40;99557.44;4860203;29;20042;-81
2022/04/11 02:28:03;;;;;;;31.48;5.70;;;;;;;8.32;51.28;99542.97;4844941;29;20084;-80
2022/04/11 02:30:30;;;;;;;29.55;5.50;;;;;;;8.31;51.37;99546.56;4844996;29;20564;-80
2022/04/11 02:32:56;;;;;;;35.35;6.70;;;;;;;8.43;51.58;99553.78;4844739;29;20037;-80
2022/04/11 02:35:24;;;;;;;29.45;5.25;;;;;;;8.48;51.31;99558.78;4844715;29;20049;-79
2022/04/11 02:37:50;;;;;;;33.80;6.53;;;;;;;8.54;51.40;99553.06;4844841;29;20405;-80
2022/04/11 02:40:17;;;;;;;22.92;6.60;;;;;;;8.51;51.47;99556.78;4860106;29;20049;-79
2022/04/11 02:42:57;;;;;;;19.55;7.22;;;;;;;8.63;51.05;99563.06;4829195;29;20041;-80
2022/04/11 02:45:23;;;;;;;25.65;8.40;;;;;;;8.62;50.89;99541.88;4860054;29;20421;-79
2022/04/11 02:47:49;;;;;;;36.97;9.25;;;;;;;8.70;51.00;99558.19;4840891;29;20066;-80
2022/04/11 02:50:15;;;;;;;38.15;9.38;;;;;;;8.81;50.88;99565.44;4825954;29;20038;-80
2022/04/11 02:52:56;;;;;;;32.95;9.43;;;;;;;8.83;50.49;99561.69;4841396;29;20046;-80
2022/04/11 02:55:22;;;;;;;31.75;8.77;;;;;;;8.93;50.95;99567.25;4841238;29;20054;-81
2022/04/11 02:57:48;;;;;;;31.88;8.55;;;;;;;9.03;51.25;99572.78;4825839;29;20064;-81
2022/04/11 03:00:15;;;;;;;35.15;7.97;;;;;;;9.21;50.50;99560.81;4841100;29;20087;-80
2022/04/11 03:02:52;;;;;;;42.72;8.63;;;;;;;9.32;50.29;99560.91;4826312;29;20057;-81
2022/04/11 03:05:18;;;;;;;24.08;7.93;;;;;;;9.33;49.19;99556.44;4810683;29;20057;-81
2022/04/11 03:07:45;;;;;;;23.00;7.43;;;;;;;9.31;49.19;99567.22;4826361;29;20049;-80
2022/04/11 03:10:13;;;;;;;27.13;7.70;;;;;;;9.41;49.08;99570.94;4826539;29;20062;-80
2022/04/11 03:12:39;;;;;;;50.20;8.25;;;;;;;9.44;48.70;99559.16;4837563;29;20082;-81
2022/04/11 03:15:09;;;;;;;48.47;8.00;;;;;;;9.44;48.55;99554.72;4859663;29;20064;-81
2022/04/11 03:17:36;;;;;;;25.75;6.53;;;;;;;9.42;48.85;99556.63;4844429;29;20105;-81
2022/04/11 03:20:03;;;;;;;35.28;7.90;;;;;;;9.53;48.47;99553.19;4861801;29;20053;-83
2022/04/11 03:22:31;;;;;;;35.25;6.47;;;;;;;9.49;48.75;99552.56;4852153;29;20164;-82
2022/04/11 03:25:02;;;;;;;31.98;6.55;;;;;;;9.55;48.36;99555.72;4835675;29;20045;-82
2022/04/11 03:27:29;;;;;;;57.15;8.90;;;;;;;9.68;48.48;99540.53;4843388;29;20124;-79
2022/04/11 03:29:55;;;;;;;18.13;5.88;;;;;;;9.71;48.48;99551.00;4832131;29;20048;-78
2022/04/11 03:32:22;;;;;;;25.42;6.15;;;;;;;9.79;48.29;99545.09;4847310;29;20085;-80
2022/04/11 03:34:50;;;;;;;17.98;5.93;;;;;;;9.90;48.46;99546.00;4847129;29;20085;-81
2022/04/11 03:37:16;;;;;;;17.38;6.18;;;;;;;10.03;48.11;99550.44;4862274;29;20080;-80
2022/04/11 03:39:51;;;;;;;25.08;5.75;;;;;;;10.15;48.14;99560.19;4833003;29;20045;-81
2022/04/11 03:42:17;;;;;;;43.13;7.90;;;;;;;10.32;47.94;99545.63;4847011;29;20041;-81
2022/04/11 03:44:43;;;;;;;50.95;6.90;;;;;;;10.48;47.65;99545.28;4831727;29;20421;-79
2022/04/11 03:47:14;;;;;;;23.00;6.05;;;;;;;10.59;47.72;99553.34;4813940;29;20166;-84
2022/04/11 03:49:40;;;;;;;16.48;5.55;;;;;;;10.78;47.49;99553.63;4825467;29;20488;-79
2022/04/11 03:52:15;;;;;;;13.02;5.28;;;;;;;10.89;46.65;99545.63;4826376;29;20057;-81
2022/04/11 03:54:41;;;;;;;26.38;5.00;;;;;;;10.99;46.75;99539.56;4835415;29;20560;-86
2022/04/11 03:57:08;;;;;;;19.35;5.45;;;;;;;11.07;46.69;99542.47;4814916;29;20560;-80
2022/04/11 03:59:34;;;;;;;34.50;5.95;;;;;;;11.28;46.49;99547.94;4842843;29;20076;-80
2022/04/11 04:02:01;;;;;;;29.02;4.70;;;;;;;11.43;45.55;99534.22;4842045;29;20114;-80
2022/04/11 04:04:28;;;;;;;14.30;4.75;;;;;;;11.45;44.95;99541.25;4840881;29;20046;-78
2022/04/11 04:06:54;;;;;;;26.17;4.50;;;;;;;11.25;45.25;99527.66;4843034;29;20136;-81
2022/04/11 04:09:20;;;;;;;21.77;4.38;;;;;;;11.33;45.06;99545.78;4859437;29;20049;-79
2022/04/11 04:11:47;;;;;;;30.42;4.70;;;;;;;11.33;44.94;99537.75;4859076;29;20052;-79
2022/04/11 04:14:40;;;;;;;19.33;4.20;;;;;;;11.50;45.80;99536.38;4845114;29;20490;-86
2022/04/11 04:17:09;;;;;;;17.13;4.25;;;;;;;11.73;45.80;99546.06;4836499;29;20045;-88
2022/04/11 04:19:45;;;;;;;24.15;4.53;;;;;;;11.84;45.49;99530.00;4824053;29;20549;-88
2022/04/11 04:22:16;;;;;;;32.50;5.25;;;;;;;12.03;44.80;99539.19;4860161;29;20049;-86
2022/04/11 04:24:43;;;;;;;25.85;4.78;;;;;;;12.08;46.57;99532.50;4846918;29;20576;-92
2022/04/11 04:27:12;;;;;;;63.85;7.28;;;;;;;12.17;44.37;99538.06;4842463;29;20040;-89
2022/04/11 04:29:38;;;;;;;;;;;;;;;12.30;44.87;99528.00;4856201;29;20460;-92
2022/04/11 04:32:05;;;;;;;24.08;4.68;;;;;;;12.21;44.01;99528.78;4851907;29;20006;-87
2022/04/11 04:34:33;;;;;;;11.30;3.50;;;;;;;12.34;46.36;99530.31;4854799;29;20056;-84
2022/04/11 04:37:00;;;;;;;17.13;5.07;;;;;;;12.50;43.86;99535.22;4854175;29;20049;-84
2022/04/11 04:39:26;;;;;;;14.30;4.07;;;;;;;12.49;43.75;99530.84;4834877;29;20056;-81
2022/04/11 04:41:53;;;;;;;30.02;4.00;;;;;;;12.38;43.04;99525.53;4834814;29;20055;-81
2022/04/11 04:44:22;;;;;;;25.10;4.18;;;;;;;12.27;43.27;99521.06;4835314;29;20075;-79
2022/04/11 04:46:53;;;;;;;32.67;4.55;;;;;;;12.31;43.30;99519.00;4850507;29;20143;-78
2022/04/11 04:49:24;;;;;;;22.58;4.05;;;;;;;12.43;43.28;99523.31;4834922;29;20048;-79
2022/04/11 04:51:52;;;;;;;18.15;4.05;;;;;;;12.35;43.09;99515.91;4860351;29;20042;-80
2022/04/11 04:54:18;;;;;;;15.20;4.80;;;;;;;12.33;43.25;99511.66;4828267;29;20050;-78
2022/04/11 04:56:49;;;;;;;15.95;4.07;;;;;;;12.56;43.41;99517.72;4844524;29;20049;-80
2022/04/11 04:59:23;;;;;;;18.73;4.25;;;;;;;12.78;42.66;99512.22;4828353;29;20462;-78
2022/04/11 05:01:50;;;;;;;18.67;4.38;;;;;;;12.62;42.75;99491.25;4827459;29;20049;-79
2022/04/11 05:04:17;;;;;;;15.15;4.43;;;;;;;12.73;42.68;99514.47;4843218;29;20050;-79
2022/04/11 05:06:42;;;;;;;24.83;4.53;;;;;;;12.58;42.98;99495.19;4827697;29;20042;-80
2022/04/11 05:09:11;;;;;;;23.92;5.57;;;;;;;12.71;43.03;99500.31;4843236;29;20045;-79
2022/04/11 05:11:38;;;;;;;19.67;4.57;;;;;;;12.89;42.60;99506.78;4827737;29;20069;-78
2022/04/11 05:14:04;;;;;;;22.38;4.60;;;;;;;13.07;42.57;99511.53;4843289;29;20133;-81
2022/04/11 05:16:33;;;;;;;20.05;4.88;;;;;;;13.00;42.21;99505.00;4827629;29;20045;-80
2022/04/11 05:19:00;;;;;;;12.25;4.40;;;;;;;13.00;42.34;99507.69;4827775;29;20498;-80
2022/04/11 05:21:27;;;;;;;20.50;5.70;;;;;;;13.03;42.30;99504.75;4842952;29;20054;-79
2022/04/11 05:23:52;;;;;;;19.15;5.57;;;;;;;12.95;42.48;99504.56;4827755;29;20409;-80
2022/04/11 05:26:19;;;;;;;36.78;6.38;;;;;;;13.03;42.57;99504.75;4842571;29;20046;-81
2022/04/11 05:28:46;;;;;;;24.58;5.22;;;;;;;13.20;42.76;99503.25;4842921;29;20140;-79
2022/04/11 05:31:12;;;;;;;25.13;5.20;;;;;;;13.44;42.55;99500.25;4797620;29;20110;-79
2022/04/11 05:33:41;;;;;;;20.88;5.43;;;;;;;13.74;41.91;99499.34;4827579;29;20050;-79
2022/04/11 05:36:11;;;;;;;25.73;6.18;;;;;;;13.91;41.16;99504.00;4842284;29;20056;-80
2022/04/11 05:38:38;;;;;;;21.73;6.05;;;;;;;13.87;41.16;99493.69;4844181;29;20137;-80
2022/04/11 05:41:04;;;;;;;18.75;4.68;;;;;;;13.81;41.05;99497.78;4833323;29;20525;-78
2022/04/11 05:43:43;;;;;;;15.40;4.97;;;;;;;14.08;41.19;99502.47;4861706;29;20136;-82
2022/04/11 05:46:11;;;;;;;23.98;5.47;;;;;;;14.28;40.73;99487.19;4845776;29;20678;-78
2022/04/11 05:48:40;;;;;;;28.05;4.75;;;;;;;14.05;40.56;99482.09;4838066;29;20054;-78
2022/04/11 05:51:07;;;;;;;16.00;4.97;;;;;;;13.94;40.88;99490.28;4813030;29;20052;-78
2022/04/11 05:53:32;;;;;;;21.48;5.75;;;;;;;14.16;40.83;99483.78;4842889;29;20053;-80
2022/04/11 05:55:58;;;;;;;22.15;6.45;;;;;;;14.35;41.07;99482.94;4827193;29;20094;-79
2022/04/11 05:58:24;;;;;;;22.10;6.45;;;;;;;14.52;41.88;99476.00;4827108;29;20417;-78
2022/04/11 06:00:50;;;;;;;15.63;5.50;;;;;;;14.79;40.65;99478.75;4842082;29;20049;-78
2022/04/11 06:03:17;;;;;;;36.03;6.50;;;;;;;15.06;40.37;99467.19;4827444;29;20039;-86
2022/04/11 06:05:43;;;;;;;28.83;7.72;;;;;;;15.26;39.77;99467.94;4827507;29;20049;-79
2022/04/11 06:08:09;;;;;;;20.70;6.13;;;;;;;15.65;39.95;99478.53;4844322;29;20057;-76
2022/04/11 06:10:40;;;;;;;22.30;5.40;;;;;;;15.99;41.17;99480.56;4842412;29;20493;-79
2022/04/11 06:13:08;;;;;;;21.33;5.65;;;;;;;16.38;41.89;99482.91;4827272;29;20048;-79
2022/04/11 06:15:34;;;;;;;20.05;5.35;;;;;;;16.82;40.83;99477.53;4827072;29;20050;-81
2022/04/11 06:18:00;;;;;;;20.58;5.05;;;;;;;17.23;39.77;99482.13;4827285;29;20107;-78
2022/04/11 06:20:26;;;;;;;20.13;5.32;;;;;;;17.47;38.62;99477.81;4827620;29;20046;-79
2022/04/11 06:22:52;;;;;;;19.05;5.80;;;;;;;17.63;38.62;99477.88;4826878;29;20137;-78
2022/04/11 06:25:19;;;;;;;24.13;5.95;;;;;;;17.88;37.80;99477.97;4811910;29;20073;-82
2022/04/11 06:27:47;;;;;;;28.15;5.55;;;;;;;17.75;36.32;99469.44;4842621;29;20532;-79
2022/04/11 06:30:13;;;;;;;20.10;5.93;;;;;;;17.89;37.60;99477.78;4843826;29;20564;-78
2022/04/11 06:32:42;;;;;;;25.30;5.50;;;;;;;17.83;35.71;99477.63;4850020;29;20057;-80
2022/04/11 06:35:08;;;;;;;15.63;4.90;;;;;;;17.45;36.31;99477.13;4853013;29;20088;-80
2022/04/11 06:37:34;;;;;;;30.27;5.38;;;;;;;17.61;37.38;99460.16;4855655;29;20450;-80
2022/04/11 06:40:02;;;;;;;9.95;4.03;;;;;;;17.90;37.03;99473.22;4852493;29;20058;-80
2022/04/11 06:42:32;;;;;;;10.75;4.45;;;;;;;18.14;36.86;99478.69;4847661;29;20057;-79
2022/04/11 06:44:59;;;;;;;10.10;4.78;;;;;;;18.38;37.10;99483.25;4828675;29;20106;-81
2022/04/11 06:47:29;;;;;;;38.03;5.70;;;;;;;18.24;35.10;99474.94;4813880;29;20537;-78
2022/04/11 06:49:55;;;;;;;12.57;5.05;;;;;;;17.60;35.57;99474.66;4828307;29;20050;-78
2022/04/11 06:52:21;;;;;;;25.40;4.40;;;;;;;17.44;36.69;99470.03;4828500;29;20547;-78
2022/04/11 06:54:47;;;;;;;12.25;4.47;;;;;;;17.65;37.98;99465.03;4845722;29;20537;-81
2022/04/11 06:57:13;;;;;;;20.83;4.60;;;;;;;18.09;38.34;99470.22;4830716;29;20064;-83
2022/04/11 06:59:39;;;;;;;16.45;4.60;;;;;;;18.31;36.22;99463.28;4843795;29;20049;-77
2022/04/11 07:02:05;;;;;;;20.95;5.75;;;;;;;18.39;35.14;99457.88;4830784;29;20550;-80
2022/04/11 07:04:31;;;;;;;26.20;5.60;;;;;;;17.99;34.88;99461.44;4851196;29;20054;-78
2022/04/11 07:06:56;;;;;;;19.75;5.80;;;;;;;17.85;36.71;99457.50;4860454;29;20068;-81
2022/04/11 07:09:22;;;;;;;29.48;5.82;;;;;;;18.16;36.65;99446.03;4860346;29;20061;-78
2022/04/11 07:11:48;;;;;;;18.05;5.50;;;;;;;18.45;36.52;99464.47;4844345;29;20045;-79
2022/04/11 07:14:15;;;;;;;17.83;6.03;;;;;;;18.43;36.12;99455.69;4829774;29;20053;-79
2022/04/11 07:16:40;;;;;;;28.10;6.97;;;;;;;18.32;35.08;99450.63;4844569;29;20048;-82
2022/04/11 07:19:06;;;;;;;25.15;8.75;;;;;;;18.03;35.41;99461.94;4814003;29;20135;-81
2022/04/11 07:21:33;;;;;;;14.18;6.35;;;;;;;18.06;35.30;99457.03;4844482;29;20524;-81
2022/04/11 07:23:58;;;;;;;22.35;5.63;;;;;;;18.34;37.84;99445.88;4828563;29;20129;-78
2022/04/11 07:26:24;;;;;;;20.55;5.63;;;;;;;18.83;36.07;99443.13;4843060;29;20504;-82
2022/04/11 07:28:50;;;;;;;26.48;5.80;;;;;;;19.20;35.76;99430.81;4860602;29;20102;-79
2022/04/11 07:31:16;;;;;;;13.40;5.30;;;;;;;19.36;34.64;99439.69;4829423;29;20077;-81
2022/04/11 07:33:42;;;;;;;15.20;4.97;;;;;;;19.45;36.03;99435.09;4844037;29;20473;-88
2022/04/11 07:36:08;;;;;;;24.77;5.57;;;;;;;19.33;34.81;99440.06;4859122;29;20056;-84
2022/04/11 07:38:35;;;;;;;27.50;5.82;;;;;;;19.18;34.88;99436.38;4860586;29;20099;-88
2022/04/11 07:41:02;;;;;;;25.33;5.72;;;;;;;19.15;35.16;99426.75;4828795;29;20105;-84
2022/04/11 07:43:28;;;;;;;34.65;7.07;;;;;;;18.97;34.36;99434.28;4844170;29;20053;-86
2022/04/11 07:45:54;;;;;;;51.92;7.22;;;;;;;18.51;34.77;99434.03;4813884;29;20045;-80
2022/04/11 07:48:20;;;;;;;60.47;7.85;;;;;;;18.69;35.09;99437.38;4843168;29;20440;-77
2022/04/11 07:50:46;;;;;;;32.45;7.00;;;;;;;19.11;34.99;99430.84;4830933;29;20056;-79
2022/04/11 07:53:12;;;;;;;49.78;8.52;;;;;;;19.59;34.90;99433.47;4863981;29;20049;-79
2022/04/11 07:55:38;;;;;;;85.18;9.00;;;;;;;19.95;34.67;99432.94;4816625;29;20044;-79
2022/04/11 07:58:04;;;;;;;17.80;5.40;;;;;;;20.06;33.25;99416.25;4847047;29;20065;-78
2022/04/11 08:00:30;;;;;;;25.67;4.60;;;;;;;19.99;33.44;99423.41;4863321;29;20042;-80
2022/04/11 08:02:57;;;;;;;28.25;5.20;;;;;;;19.88;34.17;99417.38;4845231;29;20056;-79
2022/04/11 08:05:24;;;;;;;22.90;5.32;;;;;;;20.15;34.32;99404.28;4858015;29;20587;-79
2022/04/11 08:07:51;;;;;;;22.30;4.80;;;;;;;20.72;34.34;99411.03;4862432;29;20506;-83
2022/04/11 08:10:17;;;;;;;34.45;5.15;;;;;;;21.06;34.11;99411.34;4846256;29;20056;-81
2022/04/11 08:12:53;;;;;;;20.50;4.30;;;;;;;21.01;35.47;99419.19;4831836;29;20105;-81
2022/04/11 08:15:19;;;;;;;104.88;7.00;;;;;;;20.86;35.37;99405.63;4831784;29;20501;-80
2022/04/11 08:17:45;;;;;;;29.27;3.92;;;;;;;21.14;35.77;99412.25;4839327;29;20528;-76
2022/04/11 08:20:11;;;;;;;12.93;3.90;;;;;;;21.28;35.43;99403.25;4863598;29;20086;-80
2022/04/11 08:22:37;;;;;;;18.20;4.07;;;;;;;21.33;35.34;99406.28;4846701;29;20049;-79
2022/04/11 08:25:04;;;;;;;28.58;4.85;;;;;;;21.29;35.48;99413.09;4846538;29;20064;-78
2022/04/11 08:27:30;;;;;;;21.65;4.22;;;;;;;21.30;35.35;99412.06;4862386;29;20056;-79
2022/04/11 08:29:56;;;;;;;16.77;3.95;;;;;;;21.58;35.16;99412.19;4844089;29;20081;-81
2022/04/11 08:32:22;;;;;;;18.10;3.80;;;;;;;21.75;34.93;99410.09;4845524;29;20076;-80
2022/04/11 08:34:48;;;;;;;6.75;3.40;;;;;;;22.21;35.08;99404.28;4848882;29;20084;-82
2022/04/11 08:37:14;;;;;;;19.85;3.47;;;;;;;22.61;35.36;99404.59;4862572;29;20117;-79
2022/04/11 08:39:40;;;;;;;19.45;4.07;;;;;;;22.84;34.65;99410.63;4863508;29;20046;-87
2022/04/11 08:42:06;;;;;;;20.80;4.35;;;;;;;23.18;33.63;99400.75;4844956;29;20054;-89
2022/04/11 08:44:33;;;;;;;24.45;4.20;;;;;;;23.34;33.08;99405.03;4830724;29;20062;-84
2022/04/11 08:47:02;;;;;;;19.90;3.85;;;;;;;23.40;32.52;99405.06;4846363;29;20077;-79
2022/04/11 08:49:31;;;;;;;18.55;3.85;;;;;;;23.52;31.87;99391.66;4857584;29;20086;-79
2022/04/11 08:51:57;;;;;;;35.28;3.65;;;;;;;23.55;31.68;99404.06;4857463;29;20101;-80
2022/04/11 08:54:24;;;;;;;18.08;3.83;;;;;;;23.40;32.15;99410.50;4826692;29;20089;-81
2022/04/11 08:56:50;;;;;;;14.63;3.63;;;;;;;23.31;31.97;99406.25;4826272;29;20053;-80
2022/04/11 08:59:16;;;;;;;13.10;3.10;;;;;;;23.22;31.90;99404.75;4827389;29;20060;-80
2022/04/11 09:01:42;;;;;;;12.52;3.13;;;;;;;23.09;32.30;99394.63;4856808;29;20065;-79
2022/04/11 09:04:08;;;;;;;14.70;3.47;;;;;;;23.06;32.51;99408.69;4827535;29;20254;-78
2022/04/11 09:06:36;;;;;;;13.68;3.63;;;;;;;22.64;33.16;99404.19;4840687;29;20049;-81
2022/04/11 09:09:03;;;;;;;10.98;3.17;;;;;;;22.64;33.37;99406.91;4832271;29;20042;-78
2022/04/11 09:11:37;;;;;;;14.88;3.25;;;;;;;23.00;33.20;99396.69;4809517;29;20069;-78
2022/04/11 09:14:08;;;;;;;20.00;3.53;;;;;;;23.03;32.11;99399.00;4836446;29;20291;-82
2022/04/11 09:16:47;;;;;;;20.48;3.10;;;;;;;23.00;32.31;99399.41;4843082;29;20155;-81
2022/04/11 09:19:29;;;;;;;26.10;3.60;;;;;;;23.16;32.79;99402.84;4836493;29;20113;-79
2022/04/11 09:21:55;;;;;;;14.10;3.00;;;;;;;23.11;32.09;99405.34;4869084;29;20052;-80
2022/04/11 09:24:24;;;;;;;13.70;2.92;;;;;;;22.94;32.23;99411.13;4855151;29;20052;-82
2022/04/11 09:26:55;;;;;;;14.98;2.90;;;;;;;22.99;32.29;99408.63;4853804;29;20046;-80
2022/04/11 09:29:26;;;;;;;7.32;2.78;;;;;;;22.93;32.29;99403.97;4839825;29;20397;-80
2022/04/11 09:31:53;;;;;;;25.85;2.90;;;;;;;23.01;32.28;99401.09;4840533;29;20064;-80
2022/04/11 09:34:20;;;;;;;20.13;3.35;;;;;;;23.00;32.26;99398.56;4855302;29;20041;-81
2022/04/11 09:36:56;;;;;;;14.65;3.13;;;;;;;22.98;32.49;99406.09;4870606;29;20080;-80
2022/04/11 09:39:24;;;;;;;15.00;3.22;;;;;;;22.75;32.20;99403.63;4846648;29;20105;-80
2022/04/11 09:41:50;;;;;;;13.35;3.38;;;;;;;22.84;32.33;99409.78;4847189;29;20509;-80
2022/04/11 09:44:20;;;;;;;14.93;3.20;;;;;;;22.79;32.54;99419.41;4838912;29;20140;-79
2022/04/11 09:46:47;;;;;;;19.25;3.05;;;;;;;23.27;32.07;99416.72;4871318;29;20136;-79
2022/04/11 09:49:13;;;;;;;18.95;3.67;;;;;;;23.49;31.62;99401.09;4853451;29;20049;-80
2022/04/11 09:52:01;;;;;;;20.67;3.22;;;;;;;23.56;31.40;99412.03;4838511;29;20501;-79
2022/04/11 09:54:28;;;;;;;23.95;4.00;;;;;;;23.52;31.38;99410.75;4834260;29;20037;-79
2022/04/11 09:56:57;;;;;;;15.65;3.25;;;;;;;23.56;31.29;99408.47;4848567;29;20060;-80
2022/04/11 09:59:24;;;;;;;25.10;3.05;;;;;;;23.38;31.51;99406.28;4848811;29;20056;-79
2022/04/11 10:01:51;;;;;;;10.60;2.80;;;;;;;23.48;31.33;99406.75;4864204;29;20048;-80
2022/04/11 10:04:21;;;;;;;19.15;2.92;;;;;;;23.83;31.42;99399.31;4833616;29;20041;-80
2022/04/11 10:06:48;;;;;;;15.10;3.42;;;;;;;24.04;30.94;99394.75;4864272;29;20049;-80
2022/04/11 10:09:15;;;;;;;11.93;3.25;;;;;;;24.04;30.86;99405.66;4848299;29;20049;-81
2022/04/11 10:11:43;;;;;;;17.60;3.67;;;;;;;24.07;31.08;99399.75;4847888;29;20139;-82
2022/04/11 10:14:23;;;;;;;13.45;3.45;;;;;;;23.92;31.04;99399.94;4848034;29;20055;-81
2022/04/11 10:16:51;;;;;;;18.73;3.28;;;;;;;24.04;30.85;99405.66;4863970;29;20147;-80
2022/04/11 10:19:26;;;;;;;13.70;3.42;;;;;;;24.03;31.14;99393.88;4863946;29;20080;-82
2022/04/11 10:21:55;;;;;;;12.88;2.90;;;;;;;23.88;31.32;99402.28;4849401;29;20049;-80
2022/04/11 10:24:34;;;;;;;18.83;2.58;;;;;;;23.85;31.28;99402.69;4881040;29;20055;-80
2022/04/11 10:27:20;;;;;;;12.82;2.75;;;;;;;23.36;31.60;99408.41;4880810;29;20131;-81
2022/04/11 10:29:49;;;;;;;17.65;3.92;;;;;;;23.12;32.24;99407.84;4832843;29;20040;-80
2022/04/11 10:32:25;;;;;;;15.52;3.67;;;;;;;22.81;32.47;99402.00;4880137;29;20060;-81
2022/04/11 10:34:55;;;;;;;16.42;2.78;;;;;;;22.81;32.67;99396.56;4871149;29;20531;-80
2022/04/11 10:37:46;;;;;;;23.10;3.78;;;;;;;22.84;32.87;99398.88;4848191;29;20135;-80
2022/04/11 10:40:17;;;;;;;18.95;2.83;;;;;;;22.61;32.93;99400.00;4862861;29;20068;-79
2022/04/11 10:43:04;;;;;;;10.73;2.85;;;;;;;22.35;33.44;99400.63;4847930;29;20045;-80
2022/04/11 10:45:34;;;;;;;24.52;3.30;;;;;;;22.21;33.78;99404.28;4863453;29;20060;-79
2022/04/11 10:48:04;;;;;;;8.02;2.67;;;;;;;22.15;33.67;99405.91;4847755;29;20045;-80
2022/04/11 10:50:34;;;;;;;20.27;2.85;;;;;;;21.89;34.06;99392.88;4863105;29;20469;-80
2022/04/11 10:53:27;;;;;;;10.43;3.13;;;;;;;22.01;34.21;99407.63;4857000;29;20465;-80
2022/04/11 10:55:58;;;;;;;38.47;3.97;;;;;;;22.45;34.04;99409.28;4814362;29;20105;-81
2022/04/11 10:58:41;;;;;;;13.32;3.63;;;;;;;22.41;33.57;99399.81;4844568;29;20144;-80
2022/04/11 11:01:08;;;;;;;13.07;2.42;;;;;;;22.11;33.79;99403.72;4844626;29;20111;-81
2022/04/11 11:03:34;;;;;;;18.63;2.90;;;;;;;22.11;34.05;99409.19;4844624;29;20413;-80
2022/04/11 11:06:22;;;;;;;10.30;2.80;;;;;;;22.20;33.87;99405.34;4843898;29;20041;-80
2022/04/11 11:08:49;;;;;;;12.40;2.80;;;;;;;22.33;33.73;99413.59;4829505;29;20099;-82
2022/04/11 11:11:22;;;;;;;8.48;2.58;;;;;;;22.26;33.79;99408.09;4843428;29;20136;-81
2022/04/11 11:13:48;;;;;;;16.83;3.42;;;;;;;22.36;33.47;99405.03;4856004;29;20093;-82
2022/04/11 11:16:17;;;;;;;24.75;3.38;;;;;;;22.37;33.07;99405.88;4832467;29;20073;-79
2022/04/11 11:18:46;;;;;;;12.25;3.10;;;;;;;22.20;33.37;99391.72;4847637;29;20060;-81
2022/04/11 11:21:15;;;;;;;;;;;;;;;22.10;33.58;99405.63;4832729;29;20045;-80
2022/04/11 11:23:41;;;;;;;;;;;;;;;21.97;33.60;99413.69;4879574;29;20034;-78
2022/04/11 11:26:12;;;;;;;14.73;2.80;;;;;;;21.26;34.45;99410.75;4846919;29;20006;-81
2022/04/11 11:28:43;;;;;;;7.53;2.72;;;;;;;21.32;34.40;99394.50;4857729;29;20528;-82
2022/04/11 11:31:10;;;;;;;33.78;3.75;;;;;;;21.37;34.33;99407.59;4844204;29;20105;-82
2022/04/11 11:33:36;;;;;;;10.05;3.67;;;;;;;21.50;34.30;99405.00;4860564;29;20562;-81